Time;durP1;ratioP1;P1;durP2;ratioP2;P2;SDS_P1;SDS_P2;PMS_P1;PMS_P2;Temp;Humidity;BMP_temperature;BMP_pressure;BME280_temperature;BME280_humidity;BME280_pressure;Samples;Min_cycle;Max_cycle;Signal;HPM_P1;HPM_P2
2022/10/07 00:02:13;;;;;;;5.20;3.00;;;;;;;12.60;100.00;101457.63;5073897;28;20575;-72
2022/10/07 00:04:44;;;;;;;4.30;2.73;;;;;;;12.62;100.00;101456.75;5068901;28;20201;-72
2022/10/07 00:07:09;;;;;;;4.40;2.90;;;;;;;12.64;100.00;101459.34;5072100;28;20671;-76
2022/10/07 00:09:34;;;;;;;4.90;2.83;;;;;;;12.65;100.00;101463.66;5076080;28;20213;-72
2022/10/07 00:12:00;;;;;;;3.73;2.60;;;;;;;12.68;100.00;101457.63;5076129;28;20193;-72
2022/10/07 00:14:25;;;;;;;5.03;2.97;;;;;;;12.68;100.00;101460.22;5076160;28;20237;-75
2022/10/07 00:16:50;;;;;;;4.13;2.70;;;;;;;12.70;100.00;101466.31;5072874;28;20185;-73
2022/10/07 00:19:15;;;;;;;3.00;2.67;;;;;;;12.71;100.00;101455.00;5083372;28;20210;-72
2022/10/07 00:21:41;;;;;;;3.50;2.83;;;;;;;12.71;100.00;101458.50;5075126;28;20672;-75
2022/10/07 00:24:07;;;;;;;4.23;2.77;;;;;;;12.73;100.00;101453.28;5076918;28;20253;-72
2022/10/07 00:26:35;;;;;;;5.37;2.73;;;;;;;12.73;100.00;101448.97;5079775;28;20230;-71
2022/10/07 00:29:02;;;;;;;5.60;2.90;;;;;;;12.73;100.00;101451.56;5077155;28;20550;-71
2022/10/07 00:31:30;;;;;;;4.10;3.03;;;;;;;12.72;100.00;101449.84;5072468;28;20185;-73
2022/10/07 00:33:56;;;;;;;5.20;2.77;;;;;;;12.72;100.00;101444.66;5078396;28;20655;-72
2022/10/07 00:36:27;;;;;;;4.73;2.90;;;;;;;12.72;100.00;101438.56;5070983;28;20198;-73
2022/10/07 00:38:55;;;;;;;5.87;3.90;;;;;;;12.70;100.00;101422.16;5078986;28;20221;-74
2022/10/07 00:41:24;;;;;;;5.83;4.13;;;;;;;12.68;100.00;101427.31;5071224;28;20191;-71
2022/10/07 00:43:50;;;;;;;5.00;3.73;;;;;;;12.69;100.00;101420.41;5074358;28;20624;-73
2022/10/07 00:46:38;;;;;;;4.87;3.37;;;;;;;12.69;100.00;101417.81;5078500;28;20207;-72
2022/10/07 00:49:12;;;;;;;3.63;3.33;;;;;;;12.69;100.00;101416.06;5071740;28;20676;-72
2022/10/07 00:51:42;;;;;;;6.13;3.73;;;;;;;12.70;100.00;101412.59;5078311;28;20192;-75
2022/10/07 00:54:13;;;;;;;5.00;3.27;;;;;;;12.71;100.00;101411.75;5075481;28;20200;-73
2022/10/07 00:56:41;;;;;;;4.40;3.37;;;;;;;12.73;100.00;101412.63;5070256;28;20182;-74
2022/10/07 00:59:07;;;;;;;4.50;3.20;;;;;;;12.75;100.00;101400.50;5076421;28;20213;-74
2022/10/07 01:01:33;;;;;;;4.53;3.33;;;;;;;12.75;100.00;101387.50;5074654;28;20232;-72
2022/10/07 01:03:59;;;;;;;4.00;3.27;;;;;;;12.74;100.00;101388.38;5069789;28;20190;-74
2022/10/07 01:06:24;;;;;;;4.73;3.23;;;;;;;12.75;100.00;101378.84;5072494;28;20564;-73
2022/10/07 01:08:54;;;;;;;3.27;2.97;;;;;;;12.76;100.00;101381.44;5069299;28;20669;-72
2022/10/07 01:11:25;;;;;;;3.50;3.20;;;;;;;12.77;100.00;101378.00;5073722;28;20189;-73
2022/10/07 01:14:19;;;;;;;4.83;3.33;;;;;;;12.81;100.00;101378.84;5076117;28;20222;-74
2022/10/07 01:16:57;;;;;;;4.97;3.43;;;;;;;12.81;100.00;101368.44;5073300;28;20546;-73
2022/10/07 01:19:38;;;;;;;5.87;3.30;;;;;;;12.81;100.00;101364.13;5081579;28;20204;-73
2022/10/07 01:22:36;;;;;;;3.53;3.23;;;;;;;12.82;100.00;101362.41;5076163;28;20572;-72
2022/10/07 01:25:14;;;;;;;3.80;2.90;;;;;;;12.79;100.00;101365.00;5072660;28;20195;-72
2022/10/07 01:27:46;;;;;;;3.63;3.30;;;;;;;12.77;100.00;101354.63;5080421;28;20196;-71
2022/10/07 01:30:12;;;;;;;6.50;3.40;;;;;;;12.75;100.00;101356.34;5071258;28;20191;-72
2022/10/07 01:32:48;;;;;;;4.70;2.90;;;;;;;12.75;100.00;101348.56;5073654;28;20194;-72
2022/10/07 01:35:18;;;;;;;4.03;3.07;;;;;;;12.76;100.00;101352.88;5066707;28;20191;-74
2022/10/07 01:37:48;;;;;;;4.13;3.43;;;;;;;12.76;100.00;101346.81;5080112;28;20214;-72
2022/10/07 01:40:20;;;;;;;3.43;2.90;;;;;;;12.78;100.00;101351.13;5083819;28;20181;-74
2022/10/07 01:42:47;;;;;;;3.30;3.00;;;;;;;12.79;100.00;101350.25;5082443;28;20184;-73
2022/10/07 01:45:20;;;;;;;4.37;2.93;;;;;;;12.79;100.00;101336.41;5074259;28;20285;-74
2022/10/07 01:47:49;;;;;;;4.00;3.03;;;;;;;12.80;100.00;101340.75;5080059;28;20762;-73
2022/10/07 01:50:16;;;;;;;3.70;3.00;;;;;;;12.78;100.00;101332.09;5082345;28;20226;-73
2022/10/07 01:53:14;;;;;;;3.63;3.23;;;;;;;12.79;100.00;101336.41;5075989;28;20195;-74
2022/10/07 01:56:04;;;;;;;4.13;3.17;;;;;;;12.78;100.00;101332.94;5077214;28;20759;-72
2022/10/07 01:58:29;;;;;;;3.20;2.90;;;;;;;12.77;100.00;101326.03;5077320;28;20862;-73
2022/10/07 02:01:09;;;;;;;3.30;3.00;;;;;;;12.78;100.00;101324.28;5072547;28;20309;-72
2022/10/07 02:04:12;;;;;;;6.60;3.63;;;;;;;12.78;100.00;101324.28;5072407;28;20215;-74
2022/10/07 02:06:48;;;;;;;4.67;3.20;;;;;;;12.78;100.00;101317.34;5073708;28;20198;-72
2022/10/07 02:09:29;;;;;;;3.63;3.27;;;;;;;12.77;100.00;101314.78;5073918;28;20303;-72
2022/10/07 02:12:12;;;;;;;3.30;3.00;;;;;;;12.79;100.00;101318.22;5079145;28;20188;-73
2022/10/07 02:14:45;;;;;;;5.33;3.50;;;;;;;12.79;100.00;101323.44;5080086;28;20190;-73
2022/10/07 02:17:18;;;;;;;3.90;3.10;;;;;;;12.78;100.00;101316.50;5083985;28;20623;-73
2022/10/07 02:19:48;;;;;;;3.80;3.30;;;;;;;12.77;100.00;101318.25;5073389;28;20223;-74
2022/10/07 02:22:17;;;;;;;4.20;3.10;;;;;;;12.77;100.00;101310.47;5080789;28;20204;-73
2022/10/07 02:24:46;;;;;;;3.20;2.90;;;;;;;12.77;100.00;101299.19;5079155;28;20573;-74
2022/10/07 02:27:15;;;;;;;3.63;3.03;;;;;;;12.77;100.00;101300.06;5074558;28;20271;-74
2022/10/07 02:29:41;;;;;;;3.47;3.07;;;;;;;12.78;100.00;101295.72;5075559;28;20360;-72
2022/10/07 02:32:12;;;;;;;4.13;3.27;;;;;;;12.80;100.00;101294.84;5078738;28;20191;-72
2022/10/07 02:34:42;;;;;;;4.17;3.17;;;;;;;12.79;100.00;101287.06;5074736;28;20194;-70
2022/10/07 02:37:16;;;;;;;3.90;3.50;;;;;;;12.80;100.00;101288.78;5078738;28;20190;-73
2022/10/07 02:39:44;;;;;;;3.37;3.07;;;;;;;12.79;100.00;101280.13;5075122;28;20250;-73
2022/10/07 02:42:26;;;;;;;4.57;3.87;;;;;;;12.79;100.00;101282.72;5075610;28;20183;-72
2022/10/07 02:44:58;;;;;;;4.23;3.50;;;;;;;12.76;100.00;101282.75;5078762;28;20197;-75
2022/10/07 02:47:27;;;;;;;7.03;3.37;;;;;;;12.73;100.00;101290.53;5076583;28;20585;-72
2022/10/07 02:49:56;;;;;;;5.07;3.50;;;;;;;12.71;100.00;101289.69;5081121;28;20301;-72
2022/10/07 02:52:22;;;;;;;4.43;3.10;;;;;;;12.69;100.00;101286.22;5071885;28;20187;-75
2022/10/07 02:54:56;;;;;;;5.30;3.40;;;;;;;12.69;100.00;101282.75;5078791;28;20202;-72
2022/10/07 02:57:23;;;;;;;5.13;3.27;;;;;;;12.68;100.00;101279.28;5076638;28;20247;-76
2022/10/07 02:59:51;;;;;;;4.90;3.27;;;;;;;12.67;100.00;101280.16;5073234;28;20208;-73
2022/10/07 03:02:23;;;;;;;3.70;3.23;;;;;;;12.69;100.00;101269.78;5074687;28;20186;-73
2022/10/07 03:04:48;;;;;;;6.43;3.50;;;;;;;12.67;100.00;101269.75;5074174;28;20190;-73
2022/10/07 03:07:14;;;;;;;4.47;3.00;;;;;;;12.63;100.00;101268.91;5071642;28;20208;-75
2022/10/07 03:09:40;;;;;;;5.60;3.07;;;;;;;12.61;100.00;101269.78;5078407;28;20229;-74
2022/10/07 03:12:07;;;;;;;5.83;3.50;;;;;;;12.56;100.00;101267.19;5078879;28;20744;-75
2022/10/07 03:14:34;;;;;;;6.73;3.03;;;;;;;12.54;100.00;101265.47;5071062;28;20191;-73
2022/10/07 03:17:00;;;;;;;3.63;3.00;;;;;;;12.52;100.00;101269.78;5074945;28;20190;-73
2022/10/07 03:19:25;;;;;;;3.97;2.67;;;;;;;12.51;100.00;101268.94;5083189;28;20198;-74
2022/10/07 03:21:52;;;;;;;3.23;2.70;;;;;;;12.48;100.00;101263.75;5077087;28;20192;-71
2022/10/07 03:24:17;;;;;;;4.83;2.83;;;;;;;12.49;100.00;101268.06;5083254;28;20184;-74
2022/10/07 03:26:43;;;;;;;3.43;2.60;;;;;;;12.48;100.00;101267.19;5083153;28;20181;-72
2022/10/07 03:29:09;;;;;;;4.40;2.77;;;;;;;12.46;100.00;101266.34;5087445;28;20288;-73
2022/10/07 03:31:35;;;;;;;3.07;2.43;;;;;;;12.44;100.00;101262.00;5085041;28;20569;-75
2022/10/07 03:34:00;;;;;;;3.50;2.67;;;;;;;12.45;100.00;101256.81;5079975;28;20300;-72
2022/10/07 03:36:25;;;;;;;3.63;3.03;;;;;;;12.42;100.00;101258.53;5069444;28;20183;-72
2022/10/07 03:38:51;;;;;;;3.60;2.60;;;;;;;12.41;100.00;101257.69;5067601;28;20219;-76
2022/10/07 03:41:18;;;;;;;4.10;2.57;;;;;;;12.44;100.00;101259.41;5066521;28;20295;-74
2022/10/07 03:43:43;;;;;;;3.93;2.87;;;;;;;12.46;100.00;101261.16;5076859;28;20212;-73
2022/10/07 03:46:09;;;;;;;3.10;2.70;;;;;;;12.44;100.00;101256.81;5072848;28;20306;-72
2022/10/07 03:48:34;;;;;;;5.03;2.90;;;;;;;12.42;100.00;101254.22;5072914;28;20204;-74
2022/10/07 03:50:59;;;;;;;4.40;2.87;;;;;;;12.40;100.00;101266.34;5074775;28;20249;-73
2022/10/07 03:53:28;;;;;;;3.90;2.63;;;;;;;12.37;100.00;101260.28;5079387;28;20187;-72
2022/10/07 03:55:54;;;;;;;3.63;2.60;;;;;;;12.35;100.00;101257.69;5071333;28;20673;-73
2022/10/07 03:58:19;;;;;;;5.17;2.67;;;;;;;12.34;100.00;101266.34;5072527;28;20210;-72
2022/10/07 04:00:44;;;;;;;3.97;3.00;;;;;;;12.31;100.00;101262.03;5075013;28;20250;-72
2022/10/07 04:03:10;;;;;;;3.00;2.70;;;;;;;12.29;100.00;101266.34;5069337;28;20188;-72
2022/10/07 04:05:36;;;;;;;5.00;2.40;;;;;;;12.28;100.00;101255.97;5068948;28;20186;-73
2022/10/07 04:08:03;;;;;;;3.83;2.70;;;;;;;12.24;100.00;101254.25;5072135;28;20199;-75
2022/10/07 04:10:29;;;;;;;6.27;3.07;;;;;;;12.21;100.00;101255.13;5072386;28;20690;-73
2022/10/07 04:12:55;;;;;;;4.67;2.60;;;;;;;12.17;100.00;101251.66;5074245;28;20189;-76
2022/10/07 04:15:20;;;;;;;6.37;3.33;;;;;;;12.15;100.00;101248.19;5070293;28;20182;-73
2022/10/07 04:17:48;;;;;;;5.77;3.33;;;;;;;12.13;100.00;101249.03;5073540;28;20826;-75
2022/10/07 04:20:15;;;;;;;5.20;2.93;;;;;;;12.13;100.00;101249.03;5073963;28;20719;-72
2022/10/07 04:22:41;;;;;;;8.47;3.23;;;;;;;12.12;100.00;101250.78;5068223;28;20189;-73
2022/10/07 04:27:56;;;;;;;4.67;2.70;;;;;;;12.12;100.00;101239.53;5070817;28;20189;-72
2022/10/07 04:30:24;;;;;;;4.93;2.43;;;;;;;12.10;100.00;101243.88;5070205;28;20174;-73
2022/10/07 04:32:50;;;;;;;5.37;2.67;;;;;;;12.10;100.00;101239.53;5071836;28;20197;-73
2022/10/07 04:35:16;;;;;;;8.00;2.73;;;;;;;12.10;100.00;101239.53;5070572;28;20189;-73
2022/10/07 04:37:42;;;;;;;4.10;2.40;;;;;;;12.11;100.00;101237.78;5074372;28;20258;-73
2022/10/07 04:40:08;;;;;;;5.53;2.43;;;;;;;12.09;100.00;101226.56;5074552;28;20268;-73
2022/10/07 04:45:19;;;;;;;4.70;2.30;;;;;;;12.09;100.00;101224.84;5085982;28;20205;-72
2022/10/07 04:47:44;;;;;;;5.33;2.67;;;;;;;12.09;100.00;101227.44;5074249;28;20637;-72
2022/10/07 04:50:10;;;;;;;5.33;2.40;;;;;;;12.08;100.00;101223.09;5070210;28;20197;-73
2022/10/07 04:52:39;;;;;;;6.13;2.40;;;;;;;12.11;100.00;101227.41;5074302;28;20189;-72
2022/10/07 04:55:04;;;;;;;6.40;2.70;;;;;;;12.09;100.00;101221.38;5073990;28;20189;-73
2022/10/07 04:57:30;;;;;;;7.03;2.50;;;;;;;12.09;100.00;101226.56;5069165;28;20235;-74
2022/10/07 04:59:55;;;;;;;5.93;2.20;;;;;;;12.07;100.00;101225.72;5068772;28;20739;-73
2022/10/07 05:02:20;;;;;;;4.30;2.60;;;;;;;12.06;100.00;101221.38;5075171;28;20830;-72
2022/10/07 05:04:46;;;;;;;5.87;2.70;;;;;;;12.05;100.00;101223.09;5070469;28;20198;-73
2022/10/07 05:07:11;;;;;;;3.30;2.37;;;;;;;12.04;100.00;101222.25;5070806;28;20190;-73
2022/10/07 05:09:36;;;;;;;6.37;2.80;;;;;;;12.02;100.00;101223.97;5076570;28;20666;-72
2022/10/07 05:12:02;;;;;;;5.20;2.73;;;;;;;12.01;100.00;101221.38;5077461;28;20209;-72
2022/10/07 05:14:27;;;;;;;4.77;2.80;;;;;;;12.00;100.00;101217.91;5076158;28;20186;-72
2022/10/07 05:16:52;;;;;;;5.97;2.67;;;;;;;11.99;100.00;101215.31;5078781;28;20173;-73
2022/10/07 05:19:20;;;;;;;5.63;2.80;;;;;;;11.98;100.00;101219.63;5074158;28;20209;-73
2022/10/07 05:21:45;;;;;;;5.30;2.33;;;;;;;11.96;100.00;101216.13;5084603;28;20560;-73
2022/10/07 05:24:11;;;;;;;4.03;2.20;;;;;;;11.95;100.00;101218.75;5073249;28;20187;-73
2022/10/07 05:26:36;;;;;;;4.83;2.40;;;;;;;11.94;100.00;101217.00;5077429;28;20185;-74
2022/10/07 05:29:02;;;;;;;6.27;2.50;;;;;;;11.93;100.00;101215.28;5078822;28;20649;-72
2022/10/07 05:31:27;;;;;;;4.03;2.53;;;;;;;11.95;100.00;101216.16;5083339;28;20187;-72
2022/10/07 05:33:52;;;;;;;5.97;2.80;;;;;;;11.95;100.00;101209.22;5080677;28;20196;-73
2022/10/07 05:36:21;;;;;;;3.60;2.27;;;;;;;11.93;100.00;101210.09;5082318;28;20185;-73
2022/10/07 05:38:46;;;;;;;6.40;2.40;;;;;;;11.93;100.00;101207.50;5079520;28;20221;-73
2022/10/07 05:41:11;;;;;;;4.60;2.60;;;;;;;11.93;100.00;101215.28;5065863;28;20186;-73
2022/10/07 05:43:41;;;;;;;3.83;2.47;;;;;;;11.95;100.00;101208.38;5072152;28;20197;-72
2022/10/07 05:46:19;;;;;;;4.33;2.17;;;;;;;11.93;100.00;101207.50;5070866;28;20230;-74
2022/10/07 05:48:50;;;;;;;6.27;2.20;;;;;;;11.93;100.00;101207.50;5079460;28;20263;-72
2022/10/07 05:51:16;;;;;;;3.07;2.10;;;;;;;11.92;100.00;101206.66;5073380;28;20188;-72
2022/10/07 05:53:42;;;;;;;6.67;2.70;;;;;;;11.89;100.00;101198.84;5077200;28;20688;-74
2022/10/07 05:56:09;;;;;;;3.97;2.03;;;;;;;11.89;100.00;101202.31;5078399;28;20186;-73
2022/10/07 05:58:35;;;;;;;6.53;2.63;;;;;;;11.89;100.00;101201.47;5082992;28;20213;-74
2022/10/07 06:01:02;;;;;;;4.73;2.43;;;;;;;11.90;100.00;101206.63;5081916;28;20275;-72
2022/10/07 06:03:27;;;;;;;5.80;2.57;;;;;;;11.90;100.00;101196.25;5063602;28;20635;-73
2022/10/07 06:05:53;;;;;;;4.10;2.37;;;;;;;11.95;100.00;101200.59;5069100;28;20204;-75
2022/10/07 06:08:20;;;;;;;5.93;2.40;;;;;;;11.94;100.00;101202.34;5080382;28;20281;-72
2022/10/07 06:13:33;;;;;;;6.43;2.67;;;;;;;11.95;100.00;101198.84;5078699;28;20201;-72
2022/10/07 06:16:03;;;;;;;4.50;2.27;;;;;;;11.97;100.00;101202.31;5074402;28;20213;-73
2022/10/07 06:18:29;;;;;;;5.13;2.53;;;;;;;11.97;100.00;101204.91;5080879;28;20224;-72
2022/10/07 06:20:59;;;;;;;4.47;2.27;;;;;;;11.99;100.00;101208.41;5077558;28;20541;-72
2022/10/07 06:23:26;;;;;;;6.47;2.60;;;;;;;12.00;100.00;101202.34;5085372;28;20690;-71
2022/10/07 06:25:56;;;;;;;6.43;2.30;;;;;;;12.02;100.00;101202.38;5083658;28;20243;-73
2022/10/07 06:28:22;;;;;;;4.10;2.30;;;;;;;12.01;100.00;101196.28;5087628;28;20240;-71
2022/10/07 06:30:48;;;;;;;3.27;2.27;;;;;;;12.04;100.00;101206.69;5076203;28;20194;-73
2022/10/07 06:33:14;;;;;;;4.00;2.30;;;;;;;12.06;100.00;101205.81;5080666;28;20186;-71
2022/10/07 06:35:39;;;;;;;6.50;2.50;;;;;;;12.07;100.00;101205.81;5083612;28;20264;-74
2022/10/07 06:38:05;;;;;;;3.60;2.37;;;;;;;12.09;100.00;101206.66;5079962;28;20259;-77
2022/10/07 06:40:30;;;;;;;5.30;2.80;;;;;;;12.14;100.00;101212.72;5082930;28;20198;-75
2022/10/07 06:42:55;;;;;;;6.43;2.67;;;;;;;12.19;100.00;101216.16;5078165;28;20270;-74
2022/10/07 06:45:22;;;;;;;4.43;2.57;;;;;;;12.23;100.00;101210.97;5079740;28;20215;-75
2022/10/07 06:47:47;;;;;;;5.77;2.80;;;;;;;12.25;100.00;101207.50;5081547;28;20559;-72
2022/10/07 06:50:13;;;;;;;3.80;2.73;;;;;;;12.30;100.00;101215.31;5081171;28;20189;-72
2022/10/07 06:52:39;;;;;;;4.97;2.60;;;;;;;12.31;100.00;101211.84;5078883;28;20185;-72
2022/10/07 06:55:06;;;;;;;4.97;2.57;;;;;;;12.34;100.00;101212.69;5073668;28;20193;-72
2022/10/07 06:57:32;;;;;;;6.80;3.10;;;;;;;12.39;100.00;101220.47;5091648;28;20221;-72
2022/10/07 06:59:59;;;;;;;7.67;3.93;;;;;;;12.41;100.00;101215.28;5076144;28;21370;-72
2022/10/07 07:02:26;;;;;;;4.60;3.40;;;;;;;12.42;100.00;101223.06;5082116;28;20265;-73
2022/10/07 07:04:51;;;;;;;6.67;3.17;;;;;;;12.45;100.00;101220.47;5076710;28;20242;-72
2022/10/07 07:07:16;;;;;;;6.10;3.40;;;;;;;12.44;100.00;101220.47;5085016;28;20185;-72
2022/10/07 07:09:41;;;;;;;6.97;3.93;;;;;;;12.45;100.00;101223.06;5086501;28;20584;-72
2022/10/07 07:12:07;;;;;;;5.27;3.57;;;;;;;12.48;100.00;101223.06;5075398;28;20269;-73
2022/10/07 07:14:34;;;;;;;6.33;4.03;;;;;;;12.54;100.00;101223.91;5086079;28;20268;-72
2022/10/07 07:16:59;;;;;;;8.77;4.53;;;;;;;12.61;100.00;101225.66;5078668;28;20189;-72
2022/10/07 07:19:25;;;;;;;9.93;4.73;;;;;;;12.62;100.00;101223.03;5081571;28;20210;-72
2022/10/07 07:21:50;;;;;;;5.67;4.17;;;;;;;12.64;100.00;101228.22;5081850;28;20190;-71
2022/10/07 07:24:15;;;;;;;7.53;4.80;;;;;;;12.70;100.00;101225.59;5075584;28;20565;-74
2022/10/07 07:26:41;;;;;;;7.80;4.77;;;;;;;12.76;100.00;101220.41;5071608;28;20182;-76
2022/10/07 07:29:07;;;;;;;6.60;4.27;;;;;;;12.81;100.00;101218.66;5072815;28;20263;-72
2022/10/07 07:31:35;;;;;;;9.00;5.10;;;;;;;12.89;100.00;101218.63;5076863;28;20685;-72
2022/10/07 07:34:02;;;;;;;6.07;4.73;;;;;;;12.94;100.00;101216.88;5075499;28;20236;-72
2022/10/07 07:36:30;;;;;;;10.87;4.87;;;;;;;13.01;100.00;101219.47;5075652;28;20190;-73
2022/10/07 07:38:58;;;;;;;9.97;4.73;;;;;;;13.06;100.00;101217.69;5072782;28;20296;-73
2022/10/07 07:41:27;;;;;;;7.50;4.67;;;;;;;13.13;100.00;101213.31;5075141;28;20189;-74
2022/10/07 07:43:54;;;;;;;9.60;4.73;;;;;;;13.18;100.00;101221.97;5073372;28;20214;-73
2022/10/07 07:46:21;;;;;;;5.30;4.40;;;;;;;13.25;100.00;101221.06;5075062;28;20583;-72
2022/10/07 07:48:48;;;;;;;8.47;4.30;;;;;;;13.31;100.00;101218.44;5079639;28;20198;-72
2022/10/07 07:51:16;;;;;;;6.30;4.23;;;;;;;13.38;100.00;101222.75;5070838;28;20634;-73
2022/10/07 07:53:42;;;;;;;5.83;3.70;;;;;;;13.49;100.00;101214.88;5073943;28;20622;-72
2022/10/07 07:56:08;;;;;;;6.73;4.10;;;;;;;13.67;100.00;101213.94;5075684;28;20198;-72
2022/10/07 07:58:34;;;;;;;4.97;3.73;;;;;;;13.82;100.00;101218.13;5083119;28;20749;-72
2022/10/07 08:01:02;;;;;;;6.93;3.83;;;;;;;14.05;100.00;101218.84;5074952;28;20176;-72
2022/10/07 08:03:28;;;;;;;5.80;3.97;;;;;;;14.20;100.00;101215.25;5077749;28;20215;-73
2022/10/07 08:05:54;;;;;;;5.43;3.77;;;;;;;14.29;100.00;101217.75;5073802;28;20187;-73
2022/10/07 08:08:20;;;;;;;6.03;4.03;;;;;;;14.28;100.00;101218.63;5072464;28;20212;-73
2022/10/07 08:10:45;;;;;;;4.37;3.37;;;;;;;14.37;100.00;101209.88;5070784;28;20211;-74
2022/10/07 08:13:10;;;;;;;4.13;3.03;;;;;;;14.45;100.00;101211.50;5076917;28;20566;-74
2022/10/07 08:15:36;;;;;;;6.80;3.63;;;;;;;14.52;100.00;101212.31;5071834;28;20289;-73
2022/10/07 08:18:03;;;;;;;5.90;3.33;;;;;;;14.60;100.00;101201.81;5077174;28;20228;-72
2022/10/07 08:20:29;;;;;;;5.80;3.70;;;;;;;14.60;100.00;101202.66;5075207;28;20973;-73
2022/10/07 08:22:54;;;;;;;6.43;3.63;;;;;;;14.64;100.00;101208.72;5075093;28;20330;-72
2022/10/07 08:25:21;;;;;;;4.97;3.10;;;;;;;14.71;100.00;101202.56;5075265;28;20180;-72
2022/10/07 08:27:47;;;;;;;5.83;3.30;;;;;;;14.72;100.00;101206.06;5074565;28;20959;-73
2022/10/07 08:30:12;;;;;;;3.97;3.00;;;;;;;14.77;100.00;101199.91;5084475;28;20193;-73
2022/10/07 08:32:38;;;;;;;4.10;3.10;;;;;;;14.87;100.00;101207.59;5075568;28;20185;-73
2022/10/07 08:35:03;;;;;;;5.83;3.40;;;;;;;14.92;100.00;101193.63;5077250;28;20188;-73
2022/10/07 08:37:29;;;;;;;3.80;3.20;;;;;;;14.95;100.00;101197.97;5083625;28;20585;-73
2022/10/07 08:39:54;;;;;;;5.23;3.40;;;;;;;15.02;100.00;101189.16;5075002;28;20307;-72
2022/10/07 08:42:42;;;;;;;4.10;3.00;;;;;;;15.11;100.00;101193.41;5088221;28;20185;-72
2022/10/07 08:45:19;;;;;;;5.17;3.10;;;;;;;15.23;100.00;101184.56;5076572;28;20258;-73
2022/10/07 08:47:47;;;;;;;3.50;3.20;;;;;;;15.33;100.00;101180.94;5077893;28;20195;-73
2022/10/07 08:50:14;;;;;;;5.90;3.43;;;;;;;15.45;100.00;101179.91;5074998;28;20185;-75
2022/10/07 08:52:44;;;;;;;5.77;3.07;;;;;;;15.59;100.00;101177.06;5074436;28;20197;-73
2022/10/07 08:55:14;;;;;;;5.67;3.40;;;;;;;15.72;100.00;101175.13;5075816;28;20250;-72
2022/10/07 08:57:54;;;;;;;4.20;3.20;;;;;;;15.84;100.00;101177.53;5070155;28;22013;-74
2022/10/07 09:00:33;;;;;;;4.40;3.30;;;;;;;15.98;100.00;101166.91;5070798;28;20181;-72
2022/10/07 09:03:13;;;;;;;3.83;3.10;;;;;;;16.13;99.46;101168.38;5072111;28;20187;-73
2022/10/07 09:05:43;;;;;;;5.77;3.33;;;;;;;16.20;98.85;101170.88;5069372;28;20192;-73
2022/10/07 09:08:42;;;;;;;6.57;3.50;;;;;;;16.13;98.50;101163.13;5077994;28;20198;-76
2022/10/07 09:11:15;;;;;;;6.33;3.57;;;;;;;16.12;98.71;101163.19;5069928;28;20198;-72
2022/10/07 09:13:49;;;;;;;6.93;4.10;;;;;;;16.13;98.79;101151.84;5077472;28;20197;-77
2022/10/07 09:16:30;;;;;;;4.87;3.50;;;;;;;16.21;98.66;101155.16;5074357;28;20187;-73
2022/10/07 09:18:59;;;;;;;4.57;3.33;;;;;;;16.36;98.73;101161.00;5073997;28;20268;-74
2022/10/07 09:21:44;;;;;;;5.67;3.37;;;;;;;16.49;98.36;101154.63;5074028;28;20193;-73
2022/10/07 09:24:27;;;;;;;5.03;3.20;;;;;;;16.61;98.33;101150.91;5079414;28;20694;-73
2022/10/07 09:26:55;;;;;;;6.80;3.90;;;;;;;16.73;98.22;101141.97;5080250;28;21002;-74
2022/10/07 09:29:23;;;;;;;6.27;3.20;;;;;;;16.88;97.92;101146.88;5078975;28;20205;-75
2022/10/07 09:31:49;;;;;;;5.13;3.13;;;;;;;17.01;97.57;101137.06;5074238;28;20182;-75
2022/10/07 09:34:23;;;;;;;4.97;2.87;;;;;;;17.15;97.21;101143.72;5076843;28;20201;-73
2022/10/07 09:37:07;;;;;;;7.53;3.57;;;;;;;17.24;97.11;101132.19;5079571;28;20245;-73
2022/10/07 09:39:33;;;;;;;4.07;3.60;;;;;;;17.28;96.75;101121.63;5077540;28;20711;-73
2022/10/07 09:41:58;;;;;;;4.97;3.40;;;;;;;17.32;96.59;101123.25;5069307;28;20223;-73
2022/10/07 09:44:26;;;;;;;5.40;3.63;;;;;;;17.38;96.54;101119.66;5067812;28;20193;-69
2022/10/07 09:46:58;;;;;;;3.33;2.90;;;;;;;17.52;96.42;101116.69;5072481;28;20198;-74
2022/10/07 09:49:26;;;;;;;5.97;3.80;;;;;;;17.62;95.86;101114.69;5072208;28;20294;-73
2022/10/07 09:52:06;;;;;;;5.33;3.43;;;;;;;17.74;95.48;101111.75;5073374;28;20203;-72
2022/10/07 09:54:33;;;;;;;4.43;2.97;;;;;;;17.90;95.32;101119.22;5067330;28;20205;-74
2022/10/07 09:57:02;;;;;;;4.97;3.07;;;;;;;18.00;94.84;101118.09;5075163;28;20249;-76
2022/10/07 09:59:35;;;;;;;6.40;3.50;;;;;;;18.04;94.47;101113.66;5081469;28;20300;-73
2022/10/07 10:02:12;;;;;;;6.73;3.93;;;;;;;18.05;94.11;101110.13;5082581;28;20319;-74
2022/10/07 10:04:47;;;;;;;6.03;3.43;;;;;;;18.05;94.31;101107.53;5081748;28;20325;-75
2022/10/07 10:07:27;;;;;;;5.20;3.20;;;;;;;18.13;94.15;101095.06;5086354;28;20193;-72
2022/10/07 10:09:55;;;;;;;4.27;3.30;;;;;;;18.25;94.29;101101.72;5074512;28;20696;-72
2022/10/07 10:12:23;;;;;;;3.83;3.03;;;;;;;18.34;94.01;101093.59;5077663;28;20809;-75
2022/10/07 10:14:59;;;;;;;5.00;3.37;;;;;;;18.46;93.98;101091.50;5084086;28;20766;-74
2022/10/07 10:17:31;;;;;;;4.30;2.60;;;;;;;18.53;93.78;101083.44;5079574;28;20181;-74
2022/10/07 10:20:22;;;;;;;5.57;3.13;;;;;;;18.62;93.68;101084.06;5083568;28;20219;-75
2022/10/07 10:22:47;;;;;;;4.97;3.50;;;;;;;18.74;93.88;101084.56;5082203;28;20669;-76
2022/10/07 10:28:08;;;;;;;6.73;3.07;;;;;;;18.92;93.35;101079.66;5086487;28;20224;-74
2022/10/07 10:30:46;;;;;;;6.27;3.80;;;;;;;18.84;92.80;101066.78;5087083;28;20564;-74
2022/10/07 10:33:18;;;;;;;7.00;3.67;;;;;;;18.73;92.80;101059.25;5085050;28;20207;-74
2022/10/07 10:35:57;;;;;;;8.57;3.80;;;;;;;18.67;92.63;101066.47;5078301;28;20833;-74
2022/10/07 10:38:36;;;;;;;3.63;2.93;;;;;;;18.62;92.71;101061.31;5074067;28;20219;-73
2022/10/07 10:41:05;;;;;;;5.30;3.30;;;;;;;18.72;92.76;101051.41;5076875;28;20212;-73
2022/10/07 10:43:59;;;;;;;4.87;3.00;;;;;;;18.87;92.88;101056.19;5081390;28;20222;-74
2022/10/07 10:46:38;;;;;;;6.03;3.23;;;;;;;18.96;92.84;101054.22;5075655;28;20203;-72
2022/10/07 10:49:46;;;;;;;5.30;3.27;;;;;;;19.09;92.61;101050.31;5078880;28;20205;-73
2022/10/07 10:52:44;;;;;;;5.13;3.13;;;;;;;19.15;92.18;101038.75;5078397;28;20758;-74
2022/10/07 10:55:34;;;;;;;4.63;3.30;;;;;;;19.22;92.08;101039.41;5082404;28;20194;-73
2022/10/07 10:58:45;;;;;;;6.87;3.77;;;;;;;19.19;91.87;101033.34;5084746;28;20685;-74
2022/10/07 11:01:38;;;;;;;8.07;4.00;;;;;;;18.95;91.35;101035.00;5082829;28;20208;-72
2022/10/07 11:04:21;;;;;;;6.80;4.40;;;;;;;18.79;92.42;101028.50;5080922;28;20209;-73
2022/10/07 11:06:52;;;;;;;5.07;3.57;;;;;;;18.85;92.42;101026.53;5087494;28;20208;-74
2022/10/07 11:09:40;;;;;;;5.53;3.50;;;;;;;18.95;92.37;101021.03;5071724;28;20261;-75
2022/10/07 11:12:20;;;;;;;7.00;4.00;;;;;;;18.99;91.84;101020.88;5076245;28;20199;-75
2022/10/07 11:14:53;;;;;;;5.17;3.10;;;;;;;19.04;92.19;101018.09;5085219;28;20226;-73
2022/10/07 11:17:29;;;;;;;6.03;3.73;;;;;;;19.02;92.22;101015.53;5082100;28;20934;-73
2022/10/07 11:20:24;;;;;;;4.87;3.73;;;;;;;19.11;91.58;101009.13;5081928;28;20217;-74
2022/10/07 11:22:55;;;;;;;5.57;4.03;;;;;;;19.07;92.07;101001.41;5073339;28;20289;-74
2022/10/07 11:25:36;;;;;;;6.63;3.90;;;;;;;19.06;92.33;100997.94;5086179;28;20189;-75
2022/10/07 11:28:14;;;;;;;7.47;3.77;;;;;;;19.16;92.28;100996.72;5079108;28;20285;-73
2022/10/07 11:31:16;;;;;;;6.23;3.70;;;;;;;19.18;92.19;100987.03;5077445;28;20189;-75
2022/10/07 11:34:10;;;;;;;6.77;3.67;;;;;;;19.36;91.87;100984.69;5071024;28;20208;-73
2022/10/07 11:37:04;;;;;;;6.23;3.37;;;;;;;19.37;91.87;100968.03;5076210;28;20641;-73
2022/10/07 11:39:30;;;;;;;5.73;2.97;;;;;;;19.41;92.52;100964.41;5080665;28;20217;-73
2022/10/07 11:42:04;;;;;;;4.73;2.83;;;;;;;19.46;92.38;100962.44;5084737;28;20246;-74
2022/10/07 11:44:38;;;;;;;5.63;4.03;;;;;;;19.40;92.71;100961.81;5079460;28;20203;-73
2022/10/07 11:47:10;;;;;;;9.23;3.83;;;;;;;19.28;92.79;100956.09;5080379;28;20265;-74